Time;durP1;ratioP1;P1;durP2;ratioP2;P2;SDS_P1;SDS_P2;PMS_P1;PMS_P2;Temp;Humidity;BMP_temperature;BMP_pressure;BME280_temperature;BME280_humidity;BME280_pressure;Samples;Min_cycle;Max_cycle;Signal;HPM_P1;HPM_P2
2022/01/14 00:07:17;;;;;;;26.13;5.35;;;;;;;12.95;65.33;102600.97;6149913;22;118918;-92
2022/01/14 00:09:47;;;;;;;30.23;5.60;;;;;;;12.75;63.87;102574.16;6101953;22;121945;-93
2022/01/14 00:12:24;;;;;;;23.25;5.25;;;;;;;12.83;65.17;102580.34;6102408;22;118559;-92
2022/01/14 00:14:59;;;;;;;26.50;5.68;;;;;;;12.74;65.04;102567.09;6096785;22;119360;-92
2022/01/14 00:17:26;;;;;;;26.88;5.53;;;;;;;12.53;63.45;102526.16;6071309;22;121749;-92
2022/01/14 00:19:53;;;;;;;31.55;6.60;;;;;;;12.71;63.65;102559.66;6048205;22;118390;-92
2022/01/14 00:22:20;;;;;;;28.50;6.22;;;;;;;12.81;63.88;102572.50;6046272;23;120967;-92
2022/01/14 00:33:09;;;;;;;26.05;5.97;;;;;;;12.63;65.35;102507.91;6073641;23;119366;-92
2022/01/14 00:35:42;;;;;;;26.65;5.57;;;;;;;12.55;63.68;102482.47;6070887;23;120956;-91
2022/01/14 00:38:14;;;;;;;20.17;5.43;;;;;;;12.74;65.63;102528.53;6094285;23;119539;-92
2022/01/14 00:40:42;;;;;;;28.08;5.88;;;;;;;13.02;64.28;102560.31;6047019;22;118574;-91
2022/01/14 00:43:13;;;;;;;25.13;5.40;;;;;;;12.80;64.45;102524.13;6121946;22;119626;-91
2022/01/14 00:45:39;;;;;;;31.92;7.45;;;;;;;12.69;64.28;102518.00;6070847;22;121336;-92
2022/01/14 00:48:07;;;;;;;28.83;6.28;;;;;;;12.86;63.78;102533.44;6052411;22;118667;-92
2022/01/14 00:50:35;;;;;;;28.98;5.85;;;;;;;12.77;63.89;102508.41;6094173;23;119937;-91
2022/01/14 00:53:01;;;;;;;28.70;6.38;;;;;;;12.86;64.22;102516.91;6070839;22;118623;-90
2022/01/14 00:55:30;;;;;;;25.00;6.28;;;;;;;12.63;64.94;102472.13;6045289;23;121135;-92
2022/01/14 01:00:46;;;;;;;28.30;5.45;;;;;;;12.76;64.25;102495.84;6059649;23;120035;-91
2022/01/14 01:03:12;;;;;;;26.83;5.95;;;;;;;12.53;65.35;102463.59;6060014;23;120715;-92
2022/01/14 01:05:45;;;;;;;26.00;5.05;;;;;;;12.57;63.53;102460.81;6057930;23;121568;-92
2022/01/14 01:08:15;;;;;;;23.60;5.20;;;;;;;12.55;63.96;102457.72;6034082;23;119216;-91
2022/01/14 01:10:48;;;;;;;24.58;5.55;;;;;;;12.56;64.92;102462.00;6063427;23;119535;-92
2022/01/14 01:13:22;;;;;;;40.97;9.65;;;;;;;12.63;63.63;102453.63;6058638;23;119012;-91
2022/01/14 01:15:54;;;;;;;25.38;5.22;;;;;;;12.98;65.95;102509.22;6057602;23;121241;-92
2022/01/14 01:18:21;;;;;;;28.17;6.40;;;;;;;13.23;64.94;102517.03;6057655;23;120174;-91
2022/01/14 01:20:48;;;;;;;23.10;5.55;;;;;;;12.97;65.51;102477.38;6033521;23;118650;-92
2022/01/14 01:23:14;;;;;;;26.80;5.28;;;;;;;13.21;64.90;102514.69;6056412;23;121108;-92
2022/01/14 01:26:03;;;;;;;28.85;6.43;;;;;;;13.00;64.86;102476.50;6008534;23;120742;-91
2022/01/14 01:28:42;;;;;;;32.05;6.88;;;;;;;12.88;63.64;102442.91;6056308;23;119072;-94
2022/01/14 01:31:35;;;;;;;29.58;5.78;;;;;;;12.83;64.53;102440.66;6053786;23;118632;-93
2022/01/14 01:34:32;;;;;;;20.35;4.70;;;;;;;12.78;64.31;102437.63;6018276;23;119471;-93
2022/01/14 01:37:01;;;;;;;23.02;5.05;;;;;;;12.97;64.13;102464.38;5947299;23;120623;-92
2022/01/14 01:39:32;;;;;;;29.27;5.80;;;;;;;12.82;64.12;102430.06;5945513;23;122893;-93
2022/01/14 01:42:01;;;;;;;29.70;5.82;;;;;;;13.05;63.95;102484.31;5900187;23;118704;-93
2022/01/14 01:44:28;;;;;;;37.85;6.60;;;;;;;12.87;63.26;102466.13;5921650;23;121427;-92
2022/01/14 01:46:55;;;;;;;32.05;6.38;;;;;;;12.67;62.66;102440.56;5924400;23;121843;-93
2022/01/14 01:49:24;;;;;;;23.65;5.47;;;;;;;13.09;62.64;102518.06;5945694;23;118630;-92
2022/01/14 01:51:54;;;;;;;25.00;5.40;;;;;;;12.84;63.74;102464.22;5944960;23;121131;-92
2022/01/14 01:54:21;;;;;;;27.33;7.32;;;;;;;12.89;64.50;102458.22;5968903;23;119419;-93
2022/01/14 01:56:49;;;;;;;21.98;5.60;;;;;;;12.64;65.18;102411.13;5972825;23;118981;-93
2022/01/14 01:59:19;;;;;;;26.73;5.88;;;;;;;12.74;64.81;102436.88;5919350;23;121796;-92
2022/01/14 02:01:46;;;;;;;28.70;6.40;;;;;;;12.71;64.97;102422.00;5921125;23;118757;-93
2022/01/14 02:04:12;;;;;;;26.25;5.22;;;;;;;12.99;65.20;102469.44;5946195;23;121223;-92
2022/01/14 02:06:39;;;;;;;24.00;6.00;;;;;;;12.97;64.11;102467.13;5967821;23;120158;-92
2022/01/14 02:09:06;;;;;;;26.52;5.28;;;;;;;12.99;63.55;102474.97;5921113;23;118549;-93
2022/01/14 02:11:33;;;;;;;27.45;5.55;;;;;;;12.84;63.41;102446.94;5968951;23;119603;-93
2022/01/14 02:14:04;;;;;;;26.88;6.00;;;;;;;12.55;64.57;102399.91;6012925;23;120763;-91
2022/01/14 02:16:58;;;;;;;31.20;5.83;;;;;;;12.80;63.30;102441.50;6043526;23;118564;-92
2022/01/14 02:19:31;;;;;;;27.25;5.40;;;;;;;12.82;63.91;102452.88;6120889;23;119233;-90
2022/01/14 02:22:14;;;;;;;23.67;4.75;;;;;;;12.81;64.54;102447.78;6089209;23;119393;-92
2022/01/14 02:24:57;;;;;;;22.73;5.10;;;;;;;12.57;64.59;102430.53;6062410;23;119991;-92
2022/01/14 02:27:35;;;;;;;28.23;5.07;;;;;;;12.79;63.34;102466.72;6088461;23;122907;-91
2022/01/14 02:30:01;;;;;;;28.20;6.05;;;;;;;12.63;63.69;102444.59;6065474;23;119019;-91
2022/01/14 02:32:28;;;;;;;29.23;5.70;;;;;;;12.56;63.65;102449.03;6062973;22;120743;-92
2022/01/14 02:34:54;;;;;;;26.02;5.20;;;;;;;12.43;64.19;102428.03;6063808;23;121464;-91
2022/01/14 02:37:20;;;;;;;26.38;5.70;;;;;;;12.51;65.30;102452.25;6086384;23;119251;-93
2022/01/14 02:39:46;;;;;;;24.65;5.80;;;;;;;12.64;65.48;102477.19;6066910;23;120849;-90
2022/01/14 02:42:12;;;;;;;24.95;6.40;;;;;;;12.29;64.66;102421.56;6063255;23;119001;-91
2022/01/14 02:44:37;;;;;;;24.98;6.25;;;;;;;12.59;63.89;102477.69;6060951;23;120887;-93
2022/01/14 02:47:05;;;;;;;32.17;5.95;;;;;;;12.01;64.47;102386.28;6057997;23;121666;-93
2022/01/14 02:49:34;;;;;;;28.27;5.25;;;;;;;12.51;64.61;102467.97;6031701;23;119382;-90
2022/01/14 02:52:03;;;;;;;31.25;5.40;;;;;;;12.28;65.09;102453.03;6054741;23;121748;-91
2022/01/14 02:54:38;;;;;;;27.08;6.20;;;;;;;12.43;64.37;102481.09;6106157;22;120395;-91
2022/01/14 02:57:07;;;;;;;29.27;5.72;;;;;;;12.40;64.32;102486.66;6056693;23;119182;-94
2022/01/14 02:59:36;;;;;;;26.67;5.40;;;;;;;12.23;64.56;102453.50;6057415;23;120756;-91
2022/01/14 03:02:06;;;;;;;25.80;5.70;;;;;;;12.16;64.71;102459.16;6035747;23;121753;-90
2022/01/14 03:04:36;;;;;;;29.65;5.32;;;;;;;12.33;64.29;102481.28;6032166;23;120899;-92
2022/01/14 03:07:03;;;;;;;25.63;5.25;;;;;;;12.04;64.42;102445.19;6082149;23;121924;-92
2022/01/14 03:09:29;;;;;;;30.17;5.80;;;;;;;12.13;64.68;102457.22;6034072;23;119318;-92
2022/01/14 03:11:55;;;;;;;26.27;5.57;;;;;;;12.31;64.76;102481.72;6084358;23;119545;-92
2022/01/14 03:14:25;;;;;;;27.75;5.22;;;;;;;12.08;64.56;102443.19;6083631;23;120443;-92
2022/01/14 03:16:57;;;;;;;27.55;4.97;;;;;;;12.16;64.56;102458.38;6060591;23;119421;-92
2022/01/14 03:19:25;;;;;;;25.33;5.85;;;;;;;12.28;64.51;102471.50;6059730;23;121031;-93
2022/01/14 03:22:19;;;;;;;30.05;5.68;;;;;;;12.25;65.05;102459.38;6083266;23;120386;-93
2022/01/14 03:27:31;;;;;;;30.98;6.93;;;;;;;12.21;65.79;102464.16;5996718;23;122011;-92
2022/01/14 03:30:00;;;;;;;24.27;5.30;;;;;;;12.21;66.39;102466.91;6022969;23;119597;-92
2022/01/14 03:32:27;;;;;;;26.17;5.22;;;;;;;12.23;66.05;102463.75;5996612;23;121035;-92
2022/01/14 03:34:53;;;;;;;19.58;4.82;;;;;;;12.24;65.27;102462.56;6025558;23;121851;-93
2022/01/14 03:37:18;;;;;;;24.63;4.95;;;;;;;12.19;66.13;102446.53;5998613;23;119211;-90
2022/01/14 03:39:49;;;;;;;27.30;5.20;;;;;;;12.08;65.68;102430.22;5997696;23;120963;-92
2022/01/14 03:42:17;;;;;;;23.60;5.00;;;;;;;12.16;66.68;102450.13;5997864;23;122336;-93
2022/01/14 03:44:42;;;;;;;21.48;5.03;;;;;;;12.24;65.94;102466.06;5999076;23;119561;-90
2022/01/14 03:47:08;;;;;;;26.52;5.88;;;;;;;12.08;66.02;102441.22;6026769;23;119089;-94
2022/01/14 03:49:34;;;;;;;30.67;5.45;;;;;;;12.23;65.74;102447.25;5975007;23;119853;-91
2022/01/14 03:51:59;;;;;;;24.02;4.93;;;;;;;12.33;66.94;102449.06;6022186;23;120951;-90
2022/01/14 03:54:29;;;;;;;29.60;5.05;;;;;;;11.97;66.51;102382.84;5998625;23;122049;-90
2022/01/14 03:56:55;;;;;;;25.60;5.90;;;;;;;12.33;66.18;102437.25;6023372;23;118582;-90
2022/01/14 03:59:23;;;;;;;25.48;4.90;;;;;;;12.34;65.79;102447.84;6023450;23;121129;-91
2022/01/14 04:01:49;;;;;;;30.38;5.35;;;;;;;11.91;65.23;102387.25;5998359;23;121839;-91
2022/01/14 04:04:14;;;;;;;24.77;5.22;;;;;;;12.23;64.92;102448.00;6019774;23;118917;-91
2022/01/14 04:06:40;;;;;;;34.90;5.82;;;;;;;12.35;66.36;102443.13;6083151;23;119825;-91
2022/01/14 04:09:05;;;;;;;26.77;5.97;;;;;;;12.14;65.97;102405.75;6035998;23;121965;-91
2022/01/14 04:11:33;;;;;;;29.08;5.78;;;;;;;12.44;65.21;102451.59;6031004;23;120928;-91
2022/01/14 04:15:36;;;;;;;29.95;5.55;;;;;;;12.32;65.09;102422.72;6022576;23;121814;-91
2022/01/14 04:16:45;;;;;;;26.58;5.22;;;;;;;12.29;65.22;102423.53;6100208;23;119322;-91
2022/01/14 04:19:12;;;;;;;26.33;6.00;;;;;;;12.31;65.53;102421.16;6073389;23;119511;-91
2022/01/14 04:21:38;;;;;;;37.20;6.07;;;;;;;12.35;64.87;102430.13;6072913;23;121719;-93
2022/01/14 04:24:06;;;;;;;28.50;5.93;;;;;;;12.14;65.17;102383.75;6072710;23;118966;-93
2022/01/14 04:26:32;;;;;;;36.22;6.03;;;;;;;12.40;65.27;102434.38;6073522;23;120960;-93
2022/01/14 04:28:57;;;;;;;27.70;5.72;;;;;;;12.12;66.08;102375.13;6048355;23;122168;-93
2022/01/14 04:31:23;;;;;;;33.15;5.45;;;;;;;12.38;67.17;102409.25;6053445;23;119009;-93
2022/01/14 04:33:49;;;;;;;28.42;5.43;;;;;;;12.03;65.97;102345.41;6048174;23;122992;-93
2022/01/14 04:36:18;;;;;;;31.27;5.78;;;;;;;12.14;65.94;102343.25;6029197;23;118522;-93
2022/01/14 04:38:46;;;;;;;33.22;6.20;;;;;;;12.52;65.18;102406.22;6026717;23;121088;-92
2022/01/14 04:41:12;;;;;;;30.38;5.53;;;;;;;12.39;65.30;102377.78;6051348;23;121720;-92
2022/01/14 04:43:38;;;;;;;30.98;5.40;;;;;;;12.41;66.18;102391.91;6077477;23;119086;-93
2022/01/14 04:48:35;;;;;;;32.55;6.57;;;;;;;12.45;64.68;102403.63;6077794;23;118819;-93
2022/01/14 04:51:05;;;;;;;34.67;5.90;;;;;;;12.44;64.94;102385.53;6033617;23;119076;-92
2022/01/14 04:53:31;;;;;;;34.17;5.88;;;;;;;12.46;64.59;102389.44;6077774;23;119270;-93
2022/01/14 04:56:00;;;;;;;31.05;5.78;;;;;;;12.38;65.83;102377.00;6076894;23;119308;-92
2022/01/14 04:58:28;;;;;;;23.83;5.45;;;;;;;12.48;65.45;102378.78;6030136;23;120790;-93
2022/01/14 05:00:54;;;;;;;29.70;5.38;;;;;;;12.49;65.66;102390.56;6031175;23;123248;-91
2022/01/14 05:03:21;;;;;;;27.27;5.78;;;;;;;12.47;66.30;102393.72;6054688;23;118582;-92
2022/01/14 05:05:50;;;;;;;33.75;6.32;;;;;;;12.34;64.89;102372.78;6056618;23;120789;-91
2022/01/14 05:08:23;;;;;;;30.45;6.15;;;;;;;12.14;64.44;102350.72;6028769;23;123474;-92
2022/01/14 05:13:19;;;;;;;27.10;5.57;;;;;;;11.99;66.62;102308.94;6054536;23;120877;-93
2022/01/14 05:15:47;;;;;;;26.80;5.78;;;;;;;12.25;65.72;102340.28;6027154;23;119142;-92
2022/01/14 05:18:13;;;;;;;32.67;5.72;;;;;;;12.58;65.42;102377.03;6026785;23;120445;-92
2022/01/14 05:20:39;;;;;;;31.92;5.60;;;;;;;12.40;64.95;102335.31;6051567;23;120597;-93
2022/01/14 05:23:04;;;;;;;31.52;5.60;;;;;;;12.64;64.93;102385.56;6051873;23;118528;-91
2022/01/14 05:25:30;;;;;;;28.75;5.65;;;;;;;12.46;64.93;102339.09;6051348;23;121053;-94
2022/01/14 05:27:56;;;;;;;32.97;5.65;;;;;;;12.59;64.37;102354.59;6050770;23;121986;-92
2022/01/14 05:30:22;;;;;;;29.77;5.25;;;;;;;12.70;64.73;102370.88;6026534;23;119215;-93
2022/01/14 05:32:54;;;;;;;29.02;6.20;;;;;;;12.73;64.30;102363.75;6027306;22;122218;-93
2022/01/14 05:35:23;;;;;;;30.98;6.38;;;;;;;12.69;64.46;102355.56;6080366;23;123390;-91
2022/01/14 05:37:49;;;;;;;32.30;5.18;;;;;;;12.50;64.74;102324.06;6024524;23;122084;-92
2022/01/14 05:40:16;;;;;;;25.35;5.55;;;;;;;12.67;64.21;102343.41;6073196;23;120025;-92
2022/01/14 05:42:43;;;;;;;30.25;5.65;;;;;;;12.77;64.88;102358.94;6050126;22;118504;-92
2022/01/14 05:45:10;;;;;;;30.15;5.95;;;;;;;12.78;64.75;102355.78;6024373;23;120937;-92
2022/01/14 05:47:40;;;;;;;26.77;5.30;;;;;;;12.68;64.82;102329.22;6024733;23;121950;-92
2022/01/14 05:50:11;;;;;;;35.05;5.85;;;;;;;12.86;65.44;102356.41;6047681;23;118648;-93
2022/01/14 05:52:37;;;;;;;28.45;5.22;;;;;;;12.66;65.36;102328.09;6096596;23;119308;-92
2022/01/14 05:55:04;;;;;;;27.65;6.18;;;;;;;12.88;64.07;102357.53;6048843;23;121937;-92
2022/01/14 05:57:30;;;;;;;30.25;6.43;;;;;;;12.87;63.96;102364.25;6055081;23;119305;-93
2022/01/14 05:59:56;;;;;;;30.98;5.93;;;;;;;12.79;63.99;102351.81;6025419;23;121861;-93
2022/01/14 06:02:22;;;;;;;35.53;7.38;;;;;;;12.59;63.82;102340.03;6026893;23;118593;-92
2022/01/14 06:04:47;;;;;;;32.90;5.63;;;;;;;12.72;63.81;102360.22;6050651;23;121139;-92
2022/01/14 06:07:13;;;;;;;35.05;6.10;;;;;;;12.62;65.19;102338.41;6024291;23;121776;-92
2022/01/14 06:09:38;;;;;;;31.58;6.25;;;;;;;12.70;64.65;102357.09;6047844;23;119266;-93
2022/01/14 06:12:05;;;;;;;26.60;6.22;;;;;;;12.74;64.31;102366.06;6048138;23;119210;-92
2022/01/14 06:14:30;;;;;;;35.17;6.25;;;;;;;12.75;64.59;102367.63;6022669;23;122043;-93
2022/01/14 06:16:58;;;;;;;31.25;6.15;;;;;;;12.53;64.39;102336.97;6024145;23;119028;-92
2022/01/14 06:19:29;;;;;;;31.98;5.90;;;;;;;12.76;64.08;102371.16;6052955;23;121077;-93
2022/01/14 06:21:56;;;;;;;31.90;6.20;;;;;;;12.68;64.15;102347.72;6098719;23;119197;-93
2022/01/14 06:24:23;;;;;;;29.02;6.20;;;;;;;12.71;64.27;102353.16;6097354;22;120288;-93
2022/01/14 06:26:48;;;;;;;32.72;6.57;;;;;;;12.80;64.24;102364.41;6047242;23;121742;-94
2022/01/14 06:29:14;;;;;;;31.23;6.07;;;;;;;12.83;64.81;102351.75;6023598;23;118548;-93
2022/01/14 06:31:40;;;;;;;36.47;6.60;;;;;;;12.85;64.77;102365.88;6047995;23;119480;-93
2022/01/14 06:34:06;;;;;;;33.35;5.57;;;;;;;12.84;64.07;102370.59;6072438;23;119332;-92
2022/01/14 06:36:31;;;;;;;29.80;5.75;;;;;;;12.73;64.82;102352.72;6023682;23;119635;-92
2022/01/14 06:38:57;;;;;;;35.30;6.97;;;;;;;12.65;64.60;102313.56;6053164;23;119711;-92
2022/01/14 06:41:23;;;;;;;29.98;5.72;;;;;;;12.87;64.50;102358.72;6049026;23;118923;-93
2022/01/14 06:43:48;;;;;;;35.00;6.38;;;;;;;12.67;64.32;102338.69;6049986;23;120778;-92
2022/01/14 06:46:14;;;;;;;32.80;5.97;;;;;;;12.62;64.52;102324.66;6024915;23;121825;-93
2022/01/14 06:48:40;;;;;;;35.75;6.07;;;;;;;12.81;64.43;102368.69;6027835;23;119396;-92
2022/01/14 06:51:12;;;;;;;36.42;6.82;;;;;;;12.53;64.38;102316.94;6029078;23;121006;-92
2022/01/14 06:53:38;;;;;;;31.98;5.90;;;;;;;12.74;65.27;102352.31;6051435;23;121868;-93
2022/01/14 06:56:04;;;;;;;32.75;6.72;;;;;;;12.87;65.72;102372.50;6078321;23;118954;-92
2022/01/14 06:58:29;;;;;;;28.27;5.85;;;;;;;12.87;65.60;102364.25;6029197;23;121309;-92
2022/01/14 07:00:58;;;;;;;33.22;6.50;;;;;;;12.70;65.49;102343.34;6056639;23;120419;-92
2022/01/14 07:03:23;;;;;;;39.17;6.78;;;;;;;12.57;65.23;102337.72;6024446;23;120966;-93
2022/01/14 07:05:49;;;;;;;40.65;6.53;;;;;;;12.51;65.30;102319.34;6022664;23;121807;-92
2022/01/14 07:08:15;;;;;;;34.08;6.72;;;;;;;12.55;65.17;102323.59;6047766;23;119227;-93
2022/01/14 07:10:40;;;;;;;31.88;5.97;;;;;;;12.48;65.94;102320.19;6046091;23;120822;-93
2022/01/14 07:13:06;;;;;;;34.45;7.45;;;;;;;12.85;65.80;102368.63;6069686;23;119686;-92
2022/01/14 07:15:32;;;;;;;41.63;7.30;;;;;;;12.81;65.69;102373.44;6046665;23;118488;-93
2022/01/14 07:17:58;;;;;;;32.40;6.50;;;;;;;12.73;65.92;102350.75;6070438;23;120787;-93
2022/01/14 07:20:23;;;;;;;32.47;5.97;;;;;;;12.47;66.44;102313.91;6096288;23;120451;-93
2022/01/14 07:22:49;;;;;;;34.63;6.65;;;;;;;12.57;66.22;102337.72;6075745;22;119267;-92
2022/01/14 07:25:15;;;;;;;36.28;7.45;;;;;;;12.61;66.08;102340.38;6095139;23;120140;-93
2022/01/14 07:27:41;;;;;;;36.90;6.95;;;;;;;12.79;65.92;102371.09;6047218;23;119539;-92
2022/01/14 07:30:08;;;;;;;35.40;6.32;;;;;;;12.65;65.54;102351.31;6048067;23;120994;-92
2022/01/14 07:32:34;;;;;;;34.08;6.90;;;;;;;12.64;66.06;102358.03;6022922;22;122852;-92
2022/01/14 07:35:02;;;;;;;32.53;6.30;;;;;;;12.73;65.88;102385.78;6048046;23;119327;-92
2022/01/14 07:37:28;;;;;;;33.00;6.45;;;;;;;12.78;66.25;102388.81;6022084;23;121135;-93
2022/01/14 07:39:53;;;;;;;37.03;6.85;;;;;;;12.54;65.97;102354.31;6046612;23;122273;-93
2022/01/14 07:42:19;;;;;;;38.78;6.82;;;;;;;12.78;66.23;102390.81;6069829;23;119410;-94
2022/01/14 07:44:45;;;;;;;32.33;6.03;;;;;;;12.59;67.03;102359.31;6026262;23;121004;-93
2022/01/14 07:47:11;;;;;;;35.33;5.97;;;;;;;12.81;66.46;102390.72;6047647;23;118655;-92
2022/01/14 07:49:39;;;;;;;30.90;6.25;;;;;;;12.80;66.58;102399.41;6096949;23;120572;-92
2022/01/14 07:52:04;;;;;;;31.00;6.32;;;;;;;12.79;66.57;102409.66;6021771;23;121469;-92
2022/01/14 07:54:30;;;;;;;37.30;6.97;;;;;;;12.60;66.68;102391.91;6071269;23;118580;-92
2022/01/14 07:56:58;;;;;;;32.90;6.18;;;;;;;12.81;67.84;102414.75;6047857;23;120955;-93
2022/01/14 07:59:26;;;;;;;29.08;6.25;;;;;;;12.81;67.21;102415.50;6046586;23;120317;-92
2022/01/14 08:01:55;;;;;;;32.28;6.20;;;;;;;12.80;67.48;102411.22;6071186;23;119191;-93
2022/01/14 08:04:21;;;;;;;35.72;6.20;;;;;;;12.79;67.39;102428.94;6022563;23;122308;-92
2022/01/14 08:06:49;;;;;;;33.55;6.68;;;;;;;12.54;67.66;102390.88;6051118;23;123085;-91
2022/01/14 08:09:17;;;;;;;27.42;5.38;;;;;;;12.85;67.46;102431.97;6023405;23;120864;-93
2022/01/14 08:11:44;;;;;;;25.83;5.32;;;;;;;12.86;67.20;102426.03;6073502;23;119341;-93
2022/01/14 08:14:10;;;;;;;24.00;5.47;;;;;;;12.70;66.79;102403.13;6024573;23;119825;-92
2022/01/14 08:16:36;;;;;;;32.58;5.47;;;;;;;12.82;67.76;102427.31;6103510;23;118628;-93
2022/01/14 08:19:01;;;;;;;27.65;5.35;;;;;;;12.91;67.23;102447.56;6072810;23;120210;-92
2022/01/14 08:21:27;;;;;;;27.58;5.40;;;;;;;12.61;67.03;102403.72;6070343;23;119263;-93
2022/01/14 08:23:53;;;;;;;29.20;6.18;;;;;;;12.85;67.00;102437.47;6022854;23;120940;-94
2022/01/14 08:26:18;;;;;;;36.20;5.93;;;;;;;12.94;67.17;102458.94;6045830;23;120373;-92
2022/01/14 08:28:44;;;;;;;22.20;5.45;;;;;;;12.84;67.00;102441.44;6027425;23;119707;-92
2022/01/14 08:31:10;;;;;;;30.77;5.63;;;;;;;12.90;67.25;102461.75;6070531;23;120292;-93
2022/01/14 08:33:36;;;;;;;33.85;5.15;;;;;;;12.92;67.11;102459.34;6022212;23;119479;-92
2022/01/14 08:36:02;;;;;;;27.63;4.63;;;;;;;13.00;67.51;102466.28;6046707;23;120006;-92
2022/01/14 08:38:28;;;;;;;20.15;3.78;;;;;;;12.98;67.62;102478.91;6069766;23;121574;-92
2022/01/14 08:40:54;;;;;;;21.58;4.38;;;;;;;12.84;67.17;102464.22;6046965;23;119345;-91
2022/01/14 08:43:19;;;;;;;18.45;3.90;;;;;;;12.70;67.06;102453.47;6070541;23;119330;-91
2022/01/14 08:45:45;;;;;;;21.45;4.38;;;;;;;12.77;67.33;102466.31;6070418;23;120429;-93
2022/01/14 08:48:11;;;;;;;24.73;4.10;;;;;;;12.98;67.37;102509.22;6076557;23;119092;-93
2022/01/14 08:50:38;;;;;;;21.92;3.97;;;;;;;12.71;67.41;102460.53;6046873;23;120195;-93
2022/01/14 08:53:06;;;;;;;18.10;3.38;;;;;;;12.79;67.88;102477.72;6046856;23;119373;-93
2022/01/14 08:55:35;;;;;;;19.52;3.53;;;;;;;12.96;67.46;102497.84;6024182;23;121164;-93
2022/01/14 08:58:03;;;;;;;18.92;3.63;;;;;;;13.01;67.84;102513.88;6023014;23;122674;-92
2022/01/14 09:00:29;;;;;;;18.95;3.40;;;;;;;12.99;67.94;102499.75;6022643;23;119157;-92
2022/01/14 09:02:55;;;;;;;18.10;3.15;;;;;;;12.89;67.63;102488.53;6023455;22;122150;-92
2022/01/14 09:05:23;;;;;;;17.63;3.08;;;;;;;13.02;67.20;102518.22;6087412;23;122952;-93
2022/01/14 09:07:50;;;;;;;14.45;3.45;;;;;;;12.81;67.27;102487.13;6092981;23;118685;-93
2022/01/14 09:10:18;;;;;;;16.27;2.85;;;;;;;12.69;67.78;102468.44;6071356;23;121452;-92
2022/01/14 09:12:44;;;;;;;17.25;3.78;;;;;;;12.73;68.01;102479.38;6065603;23;118987;-93
2022/01/14 09:15:11;;;;;;;15.00;2.65;;;;;;;12.71;67.72;102470.78;6067506;23;119443;-93
2022/01/14 09:17:40;;;;;;;14.35;2.85;;;;;;;12.51;67.27;102451.47;6092752;23;120380;-92
2022/01/14 09:20:08;;;;;;;14.23;2.85;;;;;;;12.55;67.27;102457.72;6066068;23;118608;-93
2022/01/14 09:22:35;;;;;;;17.30;3.03;;;;;;;13.05;67.66;102528.38;6091263;22;119198;-93
2022/01/14 09:25:07;;;;;;;15.73;2.80;;;;;;;12.67;67.71;102454.31;6041712;23;121548;-93
2022/01/14 09:27:41;;;;;;;16.42;2.97;;;;;;;12.68;67.53;102450.38;6088563;23;119494;-92
2022/01/14 09:31:45;;;;;;;17.00;2.90;;;;;;;13.11;67.64;102521.97;6118075;22;118296;-92
2022/01/14 09:34:11;;;;;;;12.88;2.38;;;;;;;13.06;67.84;102518.94;6073509;23;120527;-93
2022/01/14 09:36:38;;;;;;;11.57;2.50;;;;;;;12.66;67.54;102466.53;6068488;23;120589;-93
2022/01/14 09:39:09;;;;;;;10.43;2.63;;;;;;;12.67;67.61;102470.06;6045923;23;121785;-92
2022/01/14 09:41:36;;;;;;;14.63;2.97;;;;;;;12.88;67.18;102503.50;6069168;23;118869;-92
2022/01/14 09:44:06;;;;;;;15.77;2.38;;;;;;;12.88;67.25;102517.28;6046263;22;120747;-93
2022/01/14 09:47:22;;;;;;;13.00;2.42;;;;;;;12.63;66.98;102467.38;6094369;23;119906;-93
2022/01/14 09:49:59;;;;;;;11.10;1.90;;;;;;;12.86;66.99;102511.41;6089498;23;118558;-94
2022/01/14 09:52:27;;;;;;;10.48;2.13;;;;;;;12.67;67.17;102484.63;6044255;23;122210;-93
2022/01/14 09:54:54;;;;;;;8.80;2.33;;;;;;;12.76;66.54;102498.59;6067192;23;119360;-93
2022/01/14 09:57:23;;;;;;;8.65;1.95;;;;;;;12.77;66.42;102491.88;6049829;22;118857;-94
2022/01/14 09:59:49;;;;;;;8.88;2.40;;;;;;;12.74;66.23;102483.69;6066406;23;120294;-93
2022/01/14 10:02:37;;;;;;;11.00;2.10;;;;;;;13.16;66.17;102562.78;6094445;23;118580;-94
2022/01/14 10:05:29;;;;;;;10.68;2.30;;;;;;;13.20;66.40;102582.81;6043964;23;119709;-93
2022/01/14 10:08:16;;;;;;;12.55;2.30;;;;;;;12.87;66.54;102517.69;6063590;23;121745;-94
2022/01/14 10:10:49;;;;;;;17.33;2.47;;;;;;;12.72;66.60;102516.38;6092741;23;119201;-92
2022/01/14 10:13:24;;;;;;;10.52;2.58;;;;;;;12.74;66.54;102523.03;6067983;23;120815;-92
2022/01/14 10:16:01;;;;;;;10.80;2.65;;;;;;;13.13;66.98;102576.63;6066928;23;121842;-94
2022/01/14 10:18:34;;;;;;;14.57;2.22;;;;;;;12.77;66.44;102524.94;6094112;23;118623;-93
2022/01/14 10:21:03;;;;;;;18.10;2.88;;;;;;;13.12;66.26;102566.81;6120209;23;119696;-94
2022/01/14 10:23:47;;;;;;;17.48;2.90;;;;;;;12.81;66.75;102525.66;6043391;23;118901;-93
2022/01/14 10:26:17;;;;;;;10.68;2.50;;;;;;;12.89;66.79;102532.59;6067375;23;120543;-93
2022/01/14 10:29:05;;;;;;;11.15;2.20;;;;;;;13.17;66.40;102566.31;6090961;22;120829;-93
2022/01/14 10:31:36;;;;;;;17.08;2.97;;;;;;;12.97;66.29;102555.28;6091211;23;118626;-93
2022/01/14 10:34:16;;;;;;;17.50;2.95;;;;;;;12.91;66.60;102534.94;6117966;22;119548;-94
2022/01/14 10:36:51;;;;;;;11.23;2.38;;;;;;;13.43;66.80;102615.06;6090109;23;120389;-93
2022/01/14 10:39:21;;;;;;;13.43;2.60;;;;;;;13.45;66.01;102634.72;6068297;22;118537;-93
2022/01/14 10:41:48;;;;;;;10.77;2.20;;;;;;;12.93;65.58;102553.78;6067858;23;120587;-93
2022/01/14 10:44:23;;;;;;;8.55;1.70;;;;;;;13.37;65.34;102621.50;6095113;23;119385;-92
2022/01/14 10:46:50;;;;;;;8.80;1.80;;;;;;;13.08;65.39;102574.38;6046198;22;121136;-93
2022/01/14 10:49:37;;;;;;;9.75;2.47;;;;;;;13.34;64.93;102605.81;6091443;23;122044;-93
2022/01/14 10:52:14;;;;;;;7.70;1.42;;;;;;;12.88;64.33;102533.81;6092405;23;118507;-93
2022/01/14 10:55:04;;;;;;;8.23;1.65;;;;;;;12.90;64.01;102552.66;6091680;23;120667;-93
2022/01/14 10:57:32;;;;;;;7.63;1.58;;;;;;;13.25;64.17;102592.59;6098029;23;120522;-93
2022/01/14 11:00:21;;;;;;;8.52;2.10;;;;;;;13.23;64.67;102575.69;6070566;23;118714;-93
2022/01/14 11:02:52;;;;;;;8.55;2.20;;;;;;;12.99;63.82;102536.34;6021297;22;118455;-93
2022/01/14 11:05:28;;;;;;;11.02;2.33;;;;;;;13.00;63.72;102542.63;6097939;23;121847;-94
2022/01/14 11:07:57;;;;;;;9.43;1.98;;;;;;;13.06;63.69;102555.50;6044502;22;118495;-93
2022/01/14 11:10:28;;;;;;;11.05;2.10;;;;;;;12.96;63.77;102536.41;6093603;23;120845;-93
2022/01/14 11:12:57;;;;;;;10.73;2.30;;;;;;;13.12;63.23;102564.84;6044876;22;119523;-93
2022/01/14 11:15:29;;;;;;;16.75;3.25;;;;;;;13.16;62.61;102575.78;6042924;23;120736;-93
2022/01/14 11:18:01;;;;;;;16.05;2.67;;;;;;;13.19;63.18;102578.50;6043344;23;121986;-93
2022/01/14 11:20:37;;;;;;;9.00;2.20;;;;;;;12.95;63.70;102530.13;6068904;23;118449;-92
2022/01/14 11:23:15;;;;;;;14.32;2.80;;;;;;;13.15;63.55;102554.94;6043760;23;120204;-92
2022/01/14 11:26:06;;;;;;;13.52;2.75;;;;;;;13.49;62.65;102607.88;6116535;23;120432;-92
2022/01/14 11:48:52;;;;;;;17.63;3.65;;;;;;;12.96;61.02;102547.44;6129948;22;120981;-93
2022/01/14 11:52:10;;;;;;;26.15;4.13;;;;;;;13.48;61.89;102622.84;6154722;22;119491;-93
2022/01/14 11:58:29;;;;;;;19.48;4.32;;;;;;;13.43;60.12;102606.81;6139432;22;119459;-93
2022/01/14 12:39:17;;;;;;;33.17;6.40;;;;;;;13.31;58.59;102596.41;5946594;23;119325;-92
2022/01/14 12:49:37;;;;;;;32.13;6.60;;;;;;;12.88;59.20;102536.56;6142704;22;119189;-93
2022/01/14 12:52:10;;;;;;;33.08;6.88;;;;;;;12.83;57.94;102528.78;6145946;22;119216;-93
2022/01/14 12:54:39;;;;;;;28.92;5.43;;;;;;;12.75;57.83;102512.78;6115316;22;122127;-93
2022/01/14 12:57:25;;;;;;;37.35;6.88;;;;;;;12.77;57.76;102519.44;6101024;22;121441;-92